createdAt,value
2022-12-01T00:00:08.316Z,21.08
2022-12-01T00:02:09.753Z,21.07
2022-12-01T00:04:11.112Z,21.05
2022-12-01T00:06:12.407Z,21.05
2022-12-01T00:08:13.743Z,21.06
2022-12-01T00:10:27.273Z,21.07
2022-12-01T00:12:28.540Z,21.08
2022-12-01T00:14:29.804Z,21.11
2022-12-01T00:16:31.196Z,21.14
2022-12-01T00:18:32.552Z,21.19
2022-12-01T00:20:33.833Z,21.25
2022-12-01T00:22:35.145Z,21.29
2022-12-01T00:24:36.443Z,21.35
2022-12-01T00:26:37.739Z,21.40
2022-12-01T00:28:39.140Z,21.45
2022-12-01T00:30:40.429Z,21.48
2022-12-01T00:32:41.841Z,21.52
2022-12-01T00:34:43.109Z,21.57
2022-12-01T00:36:44.383Z,21.59
2022-12-01T00:38:45.761Z,21.63
2022-12-01T00:40:47.076Z,21.60
2022-12-01T00:42:48.345Z,21.38
2022-12-01T00:44:49.683Z,21.55
2022-12-01T00:46:50.977Z,21.53
2022-12-01T00:48:52.284Z,21.50
2022-12-01T00:50:53.596Z,21.48
2022-12-01T00:52:54.935Z,21.45
2022-12-01T00:54:56.209Z,21.46
2022-12-01T00:56:57.493Z,21.41
2022-12-01T00:58:58.819Z,21.34
2022-12-01T01:01:00.195Z,21.30
2022-12-01T01:03:01.589Z,21.26
2022-12-01T01:05:02.864Z,21.22
2022-12-01T01:07:04.159Z,21.19
2022-12-01T01:09:05.491Z,21.22
2022-12-01T01:11:06.837Z,20.38
2022-12-01T01:13:08.105Z,21.22
2022-12-01T01:15:09.376Z,21.19
2022-12-01T01:17:10.656Z,21.19
2022-12-01T01:19:12.319Z,21.15
2022-12-01T01:21:13.625Z,21.12
2022-12-01T01:23:14.900Z,21.12
2022-12-01T01:25:16.193Z,21.11
2022-12-01T01:27:17.496Z,21.10
2022-12-01T01:29:18.828Z,21.10
2022-12-01T01:31:20.653Z,21.12
2022-12-01T01:33:21.988Z,21.13
2022-12-01T01:35:23.333Z,21.16
2022-12-01T01:37:24.625Z,21.16
2022-12-01T01:39:25.904Z,21.19
2022-12-01T01:41:27.236Z,21.23
2022-12-01T01:43:28.520Z,21.25
2022-12-01T01:45:29.813Z,21.32
2022-12-01T01:47:31.095Z,21.36
2022-12-01T01:49:32.373Z,21.43
2022-12-01T01:51:33.679Z,21.49
2022-12-01T01:53:34.968Z,21.52
2022-12-01T01:55:36.308Z,21.55
2022-12-01T01:57:37.876Z,21.59
2022-12-01T01:59:39.160Z,21.61
2022-12-01T02:01:40.673Z,21.61
2022-12-01T02:03:42.313Z,21.62
2022-12-01T02:05:44.943Z,21.63
2022-12-01T02:07:46.270Z,21.65
2022-12-01T02:09:47.942Z,21.64
2022-12-01T02:11:49.556Z,21.61
2022-12-01T02:13:51.484Z,21.60
2022-12-01T02:15:52.745Z,21.57
2022-12-01T02:17:54.049Z,21.53
2022-12-01T02:19:55.328Z,21.49
2022-12-01T02:21:56.636Z,21.45
2022-12-01T02:23:57.919Z,21.41
2022-12-01T02:25:59.192Z,21.39
2022-12-01T02:28:00.458Z,21.34
2022-12-01T02:30:01.769Z,21.32
2022-12-01T02:32:03.069Z,21.33
2022-12-01T02:34:04.352Z,21.32
2022-12-01T02:36:05.672Z,21.34
2022-12-01T02:38:06.947Z,21.20
2022-12-01T02:40:08.303Z,21.12
2022-12-01T02:42:09.689Z,21.09
2022-12-01T02:44:11.024Z,21.06
2022-12-01T02:46:12.751Z,21.06
2022-12-01T02:48:14.132Z,21.04
2022-12-01T02:50:15.419Z,21.05
2022-12-01T02:52:16.683Z,21.06
2022-12-01T02:54:17.988Z,21.08
2022-12-01T02:56:19.256Z,21.11
2022-12-01T02:58:20.541Z,21.13
2022-12-01T03:00:21.832Z,21.18
2022-12-01T03:02:24.643Z,21.23
2022-12-01T03:04:26.008Z,21.31
2022-12-01T03:06:27.773Z,21.35
2022-12-01T03:08:29.056Z,21.44
2022-12-01T03:10:30.332Z,21.47
2022-12-01T03:12:31.647Z,21.53
2022-12-01T03:14:32.928Z,21.57
2022-12-01T03:16:34.256Z,21.60
2022-12-01T03:18:35.587Z,21.61
2022-12-01T03:20:36.857Z,21.63
2022-12-01T03:22:38.177Z,21.67
2022-12-01T03:24:39.485Z,21.67
2022-12-01T03:26:40.804Z,21.65
2022-12-01T03:28:42.113Z,21.63
2022-12-01T03:30:43.395Z,21.58
2022-12-01T03:32:47.380Z,21.49
2022-12-01T03:34:49.898Z,21.44
2022-12-01T03:36:51.188Z,21.39
2022-12-01T03:38:52.683Z,21.34
2022-12-01T03:40:54.004Z,21.30
2022-12-01T03:42:55.281Z,21.35
2022-12-01T03:44:56.574Z,21.21
2022-12-01T03:46:58.106Z,21.07
2022-12-01T03:48:59.380Z,20.98
2022-12-01T03:51:01.436Z,20.87
2022-12-01T03:53:02.703Z,20.94
2022-12-01T03:55:04.532Z,18.54
2022-12-01T03:57:05.823Z,16.41
2022-12-01T03:59:07.144Z,15.66
2022-12-01T04:01:08.410Z,15.01
2022-12-01T04:03:09.762Z,15.61
2022-12-01T04:05:11.087Z,17.47
2022-12-01T04:07:13.548Z,18.82
2022-12-01T04:09:14.972Z,19.63
2022-12-01T04:11:35.269Z,20.10
2022-12-01T04:13:36.952Z,20.42
2022-12-01T04:15:38.302Z,20.60
2022-12-01T04:17:39.742Z,20.79
2022-12-01T04:19:41.027Z,20.92
2022-12-01T04:21:42.352Z,20.98
2022-12-01T04:24:01.966Z,21.06
2022-12-01T04:26:03.280Z,21.13
2022-12-01T04:28:04.565Z,21.20
2022-12-01T04:30:05.900Z,21.28
2022-12-01T04:32:07.232Z,21.30
2022-12-01T04:34:08.543Z,21.34
2022-12-01T04:36:10.031Z,21.41
2022-12-01T04:38:11.724Z,21.42
2022-12-01T04:40:13.062Z,21.47
2022-12-01T04:42:14.371Z,21.49
2022-12-01T04:44:15.706Z,21.52
2022-12-01T04:46:17.015Z,21.54
2022-12-01T04:48:18.313Z,21.55
2022-12-01T04:50:19.647Z,21.55
2022-12-01T04:52:20.958Z,21.58
2022-12-01T04:54:22.359Z,21.62
2022-12-01T04:56:23.697Z,21.63
2022-12-01T04:58:24.990Z,21.61
2022-12-01T05:00:26.291Z,21.63
2022-12-01T05:02:27.755Z,21.60
2022-12-01T05:04:31.195Z,21.57
2022-12-01T05:06:32.685Z,21.49
2022-12-01T05:08:34.541Z,21.39
2022-12-01T05:10:36.288Z,21.30
2022-12-01T05:12:37.568Z,21.21
2022-12-01T05:14:38.865Z,21.14
2022-12-01T05:16:40.681Z,21.03
2022-12-01T05:18:42.146Z,20.94
2022-12-01T05:20:59.130Z,20.86
2022-12-01T05:23:10.766Z,20.81
2022-12-01T05:25:13.488Z,20.75
2022-12-01T05:27:14.788Z,20.69
2022-12-01T05:29:16.060Z,20.66
2022-12-01T05:31:17.424Z,20.64
2022-12-01T05:33:18.734Z,20.61
2022-12-01T05:35:20.026Z,20.56
2022-12-01T05:37:21.331Z,20.54
2022-12-01T05:39:22.635Z,20.52
2022-12-01T05:41:24.086Z,20.55
2022-12-01T05:43:28.942Z,20.56
2022-12-01T05:45:31.623Z,20.60
2022-12-01T05:47:32.928Z,20.62
2022-12-01T05:49:34.231Z,20.67
2022-12-01T05:51:35.601Z,20.77
2022-12-01T05:53:36.952Z,20.83
2022-12-01T05:55:38.275Z,20.92
2022-12-01T05:57:39.787Z,21.00
2022-12-01T05:59:41.073Z,21.04
2022-12-01T06:01:42.379Z,21.11
2022-12-01T06:03:43.770Z,21.14
2022-12-01T06:05:45.080Z,21.19
2022-12-01T06:07:46.452Z,21.25
2022-12-01T06:09:48.185Z,21.30
2022-12-01T06:11:52.508Z,21.34
2022-12-01T06:13:54.056Z,21.35
2022-12-01T06:15:55.397Z,21.41
2022-12-01T06:17:56.690Z,21.41
2022-12-01T06:19:58.025Z,21.37
2022-12-01T06:21:59.308Z,21.39
2022-12-01T06:24:00.620Z,21.38
2022-12-01T06:26:02.107Z,21.39
2022-12-01T06:28:03.575Z,21.40
2022-12-01T06:30:04.858Z,21.36
2022-12-01T06:32:06.221Z,21.37
2022-12-01T06:34:07.590Z,21.33
2022-12-01T06:36:09.837Z,21.28
2022-12-01T06:38:11.192Z,21.24
2022-12-01T06:40:12.511Z,21.20
2022-12-01T06:42:13.808Z,21.16
2022-12-01T06:44:15.159Z,21.08
2022-12-01T06:46:16.579Z,21.02
2022-12-01T06:48:18.238Z,20.97
2022-12-01T06:50:19.679Z,20.90
2022-12-01T06:52:21.011Z,20.87
2022-12-01T06:54:22.606Z,20.81
2022-12-01T06:56:24.183Z,20.77
2022-12-01T06:58:25.942Z,20.71
2022-12-01T07:00:27.680Z,20.69
2022-12-01T07:02:29.192Z,20.67
2022-12-01T07:04:31.085Z,20.64
2022-12-01T07:06:32.379Z,20.60
2022-12-01T07:08:33.907Z,20.60
2022-12-01T07:10:35.219Z,20.60
2022-12-01T07:12:36.625Z,20.59
2022-12-01T07:14:37.976Z,20.63
2022-12-01T07:16:39.311Z,20.66
2022-12-01T07:18:40.693Z,20.72
2022-12-01T07:20:41.985Z,20.79
2022-12-01T07:22:43.774Z,20.85
2022-12-01T07:24:45.056Z,20.92
2022-12-01T07:26:46.464Z,20.10
2022-12-01T07:28:47.807Z,21.00
2022-12-01T07:30:49.166Z,21.04
2022-12-01T07:32:50.638Z,21.08
2022-12-01T07:34:51.903Z,21.11
2022-12-01T07:36:53.232Z,21.18
2022-12-01T07:38:54.528Z,21.21
2022-12-01T07:40:55.812Z,21.24
2022-12-01T07:42:57.247Z,21.23
2022-12-01T07:44:58.571Z,21.27
2022-12-01T07:47:00.090Z,21.27
2022-12-01T07:49:01.432Z,21.26
2022-12-01T07:51:02.835Z,21.26
2022-12-01T07:53:04.180Z,21.27
2022-12-01T07:55:05.492Z,21.26
2022-12-01T07:57:07.039Z,21.25
2022-12-01T07:59:08.435Z,21.22
2022-12-01T08:01:09.927Z,21.21
2022-12-01T08:03:11.347Z,21.20
2022-12-01T08:05:12.726Z,21.18
2022-12-01T08:07:14.087Z,21.16
2022-12-01T08:09:15.389Z,21.14
2022-12-01T08:11:16.738Z,21.10
2022-12-01T08:13:18.060Z,21.04
2022-12-01T08:15:19.379Z,21.00
2022-12-01T08:17:20.766Z,20.95
2022-12-01T08:19:22.067Z,20.93
2022-12-01T08:21:23.387Z,20.88
2022-12-01T08:23:24.681Z,20.84
2022-12-01T08:25:26.143Z,20.79
2022-12-01T08:27:27.433Z,20.77
2022-12-01T08:29:28.749Z,20.75
2022-12-01T08:31:30.085Z,20.72
2022-12-01T08:33:31.579Z,20.69
2022-12-01T08:35:33.881Z,20.69
2022-12-01T08:37:35.489Z,20.68
2022-12-01T08:39:36.985Z,20.69
2022-12-01T08:41:38.265Z,20.70
2022-12-01T08:43:57.105Z,20.72
2022-12-01T08:46:00.038Z,20.77
2022-12-01T08:48:01.403Z,20.81
2022-12-01T08:50:05.032Z,20.89
2022-12-01T08:52:06.329Z,20.93
2022-12-01T08:54:07.653Z,20.99
2022-12-01T08:56:08.938Z,21.03
2022-12-01T08:58:10.236Z,21.07
2022-12-01T09:00:11.560Z,21.12
2022-12-01T09:02:12.946Z,21.13
2022-12-01T09:04:14.315Z,21.17
2022-12-01T09:06:15.788Z,21.19
2022-12-01T09:08:32.156Z,21.20
2022-12-01T09:10:33.449Z,21.26
2022-12-01T09:12:34.729Z,21.22
2022-12-01T09:14:36.208Z,21.25
2022-12-01T09:16:37.599Z,21.22
2022-12-01T09:18:38.998Z,21.22
2022-12-01T09:20:40.281Z,21.23
2022-12-01T09:22:41.602Z,21.22
2022-12-01T09:24:42.896Z,21.19
2022-12-01T09:26:44.201Z,21.17
2022-12-01T09:28:45.494Z,21.11
2022-12-01T09:30:46.855Z,21.08
2022-12-01T09:32:48.158Z,21.06
2022-12-01T09:34:49.573Z,21.01
2022-12-01T09:36:50.899Z,20.98
2022-12-01T09:38:52.183Z,20.93
2022-12-01T09:40:53.855Z,20.89
2022-12-01T09:42:55.144Z,20.88
2022-12-01T09:44:57.156Z,20.84
2022-12-01T09:46:58.532Z,20.81
2022-12-01T09:49:00.938Z,20.79
2022-12-01T09:51:02.293Z,20.76
2022-12-01T09:53:03.847Z,20.75
2022-12-01T09:55:05.147Z,20.71
2022-12-01T09:57:06.486Z,20.71
2022-12-01T09:59:08.169Z,20.71
2022-12-01T10:01:09.509Z,20.69
2022-12-01T10:03:10.864Z,20.69
2022-12-01T10:05:12.252Z,20.69
2022-12-01T10:07:13.582Z,20.70
2022-12-01T10:09:14.866Z,20.72
2022-12-01T10:11:16.190Z,20.73
2022-12-01T10:13:17.509Z,20.79
2022-12-01T10:15:18.795Z,20.83
2022-12-01T10:17:20.099Z,20.88
2022-12-01T10:19:21.441Z,20.90
2022-12-01T10:21:22.724Z,20.93
2022-12-01T10:23:24.040Z,20.97
2022-12-01T10:25:25.372Z,20.98
2022-12-01T10:27:26.657Z,21.00
2022-12-01T10:29:28.313Z,21.05
2022-12-01T10:31:29.667Z,21.07
2022-12-01T10:33:31.165Z,21.08
2022-12-01T10:35:36.856Z,21.09
2022-12-01T10:37:38.207Z,21.10
2022-12-01T10:39:39.697Z,21.11
2022-12-01T10:41:41.009Z,21.12
2022-12-01T10:43:42.280Z,21.13
2022-12-01T10:45:44.204Z,21.13
2022-12-01T10:47:45.545Z,21.17
2022-12-01T10:49:47.019Z,21.14
2022-12-01T10:51:48.387Z,21.12
2022-12-01T10:53:49.679Z,21.13
2022-12-01T10:55:51.194Z,21.11
2022-12-01T10:57:52.477Z,21.11
2022-12-01T10:59:53.981Z,21.11
2022-12-01T11:01:55.383Z,21.11
2022-12-01T11:03:57.021Z,20.20
2022-12-01T11:05:58.481Z,21.07
2022-12-01T11:07:59.863Z,21.06
2022-12-01T11:10:01.206Z,21.03
2022-12-01T11:12:02.535Z,21.00
2022-12-01T11:14:03.906Z,20.95
2022-12-01T11:16:05.210Z,20.91
2022-12-01T11:18:06.536Z,20.87
2022-12-01T11:20:07.852Z,20.87
2022-12-01T11:22:09.188Z,20.86
2022-12-01T11:24:10.508Z,20.84
2022-12-01T11:26:11.863Z,20.81
2022-12-01T11:28:13.145Z,20.79
2022-12-01T11:30:14.484Z,20.79
2022-12-01T11:32:15.866Z,20.77
2022-12-01T11:34:17.219Z,20.75
2022-12-01T11:36:18.546Z,20.75
2022-12-01T11:38:35.135Z,20.75
2022-12-01T11:40:36.424Z,20.76
2022-12-01T11:42:37.748Z,20.77
2022-12-01T11:44:54.265Z,20.77
2022-12-01T11:47:21.780Z,20.79
2022-12-01T11:49:16.933Z,20.81
2022-12-01T11:51:18.212Z,20.82
2022-12-01T11:53:19.480Z,20.86
2022-12-01T11:55:20.808Z,20.89
2022-12-01T11:57:37.170Z,20.93
2022-12-01T11:59:38.481Z,20.90
2022-12-01T12:01:39.841Z,20.96
2022-12-01T12:03:41.167Z,20.96
2022-12-01T12:05:42.926Z,20.99
2022-12-01T12:07:44.306Z,21.01
2022-12-01T12:09:45.672Z,21.01
2022-12-01T12:11:46.945Z,21.02
2022-12-01T12:13:48.782Z,21.03
2022-12-01T12:15:50.306Z,21.03
2022-12-01T12:17:51.671Z,21.04
2022-12-01T12:20:07.643Z,21.04
2022-12-01T12:22:09.712Z,21.05
2022-12-01T12:24:11.016Z,21.06
2022-12-01T12:26:12.361Z,21.06
2022-12-01T12:28:13.660Z,21.06
2022-12-01T12:30:14.953Z,21.07
2022-12-01T12:32:16.234Z,21.07
2022-12-01T12:34:19.159Z,21.07
2022-12-01T12:36:20.463Z,21.07
2022-12-01T12:38:21.790Z,21.06
2022-12-01T12:40:23.081Z,21.05
2022-12-01T12:42:24.344Z,21.05
2022-12-01T12:44:25.671Z,21.03
2022-12-01T12:46:26.970Z,21.02
2022-12-01T12:48:31.253Z,21.01
2022-12-01T12:50:32.545Z,21.01
2022-12-01T12:52:33.856Z,21.01
2022-12-01T12:54:35.249Z,20.95
2022-12-01T12:56:36.597Z,20.96
2022-12-01T12:58:37.871Z,20.95
2022-12-01T13:00:39.171Z,20.93
2022-12-01T13:02:40.622Z,20.90
2022-12-01T13:04:41.978Z,20.89
2022-12-01T13:06:43.278Z,20.87
2022-12-01T13:08:47.581Z,20.88
2022-12-01T13:10:48.875Z,20.87
2022-12-01T13:12:50.180Z,20.87
2022-12-01T13:14:55.143Z,20.87
2022-12-01T13:16:59.131Z,20.85
2022-12-01T13:19:03.209Z,20.84
2022-12-01T13:21:04.552Z,20.81
2022-12-01T13:23:05.900Z,21.00
2022-12-01T13:25:07.721Z,21.62
2022-12-01T13:27:09.009Z,22.17
2022-12-01T13:29:10.296Z,22.51
2022-12-01T13:31:11.682Z,22.29
2022-12-01T13:33:13.011Z,22.13
2022-12-01T13:35:14.291Z,22.45
2022-12-01T13:37:15.686Z,22.32
2022-12-01T13:39:16.953Z,22.23
2022-12-01T13:41:18.258Z,22.14
2022-12-01T13:43:19.580Z,22.31
2022-12-01T13:45:20.903Z,22.23
2022-12-01T13:47:22.243Z,21.69
2022-12-01T13:49:23.523Z,21.80
2022-12-01T13:51:24.890Z,22.12
2022-12-01T13:56:07.428Z,22.24
2022-12-01T13:58:08.816Z,22.36
2022-12-01T14:00:11.048Z,22.24
2022-12-01T14:02:12.425Z,22.29
2022-12-01T14:04:13.736Z,22.33
2022-12-01T14:06:15.060Z,22.22
2022-12-01T14:08:21.399Z,21.86
2022-12-01T14:10:24.552Z,21.65
2022-12-01T14:12:25.896Z,21.54
2022-12-01T14:14:27.223Z,21.49
2022-12-01T14:16:28.596Z,21.34
2022-12-01T14:18:30.268Z,21.20
2022-12-01T14:20:31.585Z,21.36
2022-12-01T14:22:33.125Z,21.77
2022-12-01T14:24:34.661Z,22.13
2022-12-01T14:26:36.695Z,22.19
2022-12-01T14:28:40.009Z,22.65
2022-12-01T14:30:45.704Z,23.04
2022-12-01T14:32:47.023Z,23.02
2022-12-01T14:34:48.668Z,22.57
2022-12-01T14:36:50.107Z,22.09
2022-12-01T14:38:51.416Z,22.03
2022-12-01T14:40:52.704Z,22.46
2022-12-01T14:43:12.577Z,22.31
2022-12-01T14:45:13.958Z,22.66
2022-12-01T14:47:16.107Z,22.55
2022-12-01T14:49:17.837Z,22.66
2022-12-01T14:51:19.180Z,22.59
2022-12-01T14:53:20.513Z,22.40
2022-12-01T14:55:21.798Z,22.30
2022-12-01T14:57:23.536Z,22.27
2022-12-01T14:59:26.287Z,22.24
2022-12-01T15:01:27.646Z,22.25
2022-12-01T15:03:32.034Z,22.09
2022-12-01T15:05:33.508Z,21.84
2022-12-01T15:07:34.892Z,22.39
2022-12-01T15:09:36.517Z,22.28
2022-12-01T15:11:39.368Z,22.20
2022-12-01T15:13:40.653Z,22.09
2022-12-01T15:15:41.944Z,22.05
2022-12-01T15:17:43.224Z,22.10
2022-12-01T15:19:44.508Z,22.10
2022-12-01T15:21:45.821Z,22.04
2022-12-01T15:23:47.121Z,22.25
2022-12-01T15:25:48.456Z,22.13
2022-12-01T15:27:49.735Z,22.10
2022-12-01T15:29:51.232Z,22.08
2022-12-01T15:31:53.378Z,21.85
2022-12-01T15:33:54.821Z,21.61
2022-12-01T15:35:56.162Z,21.73
2022-12-01T15:37:57.508Z,21.84
2022-12-01T15:40:43.057Z,21.89
2022-12-01T15:42:20.093Z,22.13
2022-12-01T15:44:21.448Z,22.45
2022-12-01T15:46:22.797Z,22.59
2022-12-01T15:48:24.106Z,22.63
2022-12-01T15:50:25.384Z,22.47
2022-12-01T15:52:26.674Z,21.84
2022-12-01T15:54:27.996Z,22.62
2022-12-01T15:56:32.006Z,22.49
2022-12-01T15:58:33.324Z,22.36
2022-12-01T16:00:34.616Z,22.33
2022-12-01T16:02:36.000Z,22.10
2022-12-01T16:04:37.354Z,21.84
2022-12-01T16:06:38.633Z,21.89
2022-12-01T16:08:40.024Z,22.11
2022-12-01T16:10:41.444Z,22.21
2022-12-01T16:12:42.725Z,22.24
2022-12-01T16:14:44.000Z,22.15
2022-12-01T16:16:45.364Z,22.26
2022-12-01T16:18:46.717Z,22.25
2022-12-01T16:20:48.058Z,22.13
2022-12-01T16:22:49.381Z,22.07
2022-12-01T16:24:50.922Z,22.10
2022-12-01T16:26:52.465Z,21.73
2022-12-01T16:28:53.752Z,21.74
2022-12-01T16:30:55.185Z,21.81
2022-12-01T16:32:56.609Z,21.90
2022-12-01T16:34:58.146Z,21.91
2022-12-01T16:36:59.588Z,21.92
2022-12-01T16:39:01.016Z,21.91
2022-12-01T16:41:02.293Z,21.91
2022-12-01T16:43:03.576Z,22.00
2022-12-01T16:45:04.864Z,21.88
2022-12-01T16:47:06.141Z,21.87
2022-12-01T16:49:07.885Z,21.86
2022-12-01T16:51:09.209Z,21.87
2022-12-01T16:53:14.031Z,21.92
2022-12-01T16:55:15.413Z,22.05
2022-12-01T16:57:17.388Z,22.18
2022-12-01T16:59:18.668Z,22.05
2022-12-01T17:01:22.956Z,21.97
2022-12-01T17:03:24.317Z,21.98
2022-12-01T17:05:25.608Z,22.03
2022-12-01T17:07:27.111Z,22.11
2022-12-01T17:09:31.347Z,22.15
2022-12-01T17:11:32.623Z,22.20
2022-12-01T17:13:33.940Z,22.15
2022-12-01T17:15:35.304Z,21.93
2022-12-01T17:17:36.692Z,21.90
2022-12-01T17:19:38.012Z,22.14
2022-12-01T17:21:39.356Z,22.27
2022-12-01T17:23:40.714Z,21.98
2022-12-01T17:25:42.066Z,21.67
2022-12-01T17:27:44.022Z,21.58
2022-12-01T17:29:46.335Z,21.63
2022-12-01T17:31:48.018Z,21.89
2022-12-01T17:33:50.144Z,21.99
2022-12-01T17:35:51.490Z,22.05
2022-12-01T17:37:52.768Z,22.13
2022-12-01T17:39:54.532Z,22.15
2022-12-01T17:41:55.818Z,22.13
2022-12-01T17:43:57.120Z,22.08
2022-12-01T17:45:58.440Z,22.12
2022-12-01T17:47:59.736Z,22.08
2022-12-01T17:50:01.121Z,22.09
2022-12-01T17:52:02.484Z,22.07
2022-12-01T17:54:06.795Z,22.06
2022-12-01T17:56:10.990Z,22.04
2022-12-01T17:58:12.489Z,21.68
2022-12-01T18:00:16.781Z,21.48
2022-12-01T18:02:18.094Z,21.34
2022-12-01T18:04:19.428Z,21.27
2022-12-01T18:06:20.747Z,21.21
2022-12-01T18:08:22.054Z,21.17
2022-12-01T18:10:23.341Z,21.13
2022-12-01T18:12:24.673Z,21.08
2022-12-01T18:14:25.976Z,21.07
2022-12-01T18:16:27.355Z,21.04
2022-12-01T18:18:28.897Z,21.03
2022-12-01T18:20:30.204Z,21.04
2022-12-01T18:22:31.524Z,21.04
2022-12-01T18:24:32.920Z,21.01
2022-12-01T18:26:34.201Z,21.00
2022-12-01T18:28:35.533Z,20.93
2022-12-01T18:30:36.853Z,20.90
2022-12-01T18:32:38.185Z,21.10
2022-12-01T18:34:39.509Z,21.39
2022-12-01T18:36:43.636Z,21.59
2022-12-01T18:38:46.813Z,21.68
2022-12-01T18:40:48.154Z,21.93
2022-12-01T18:42:50.634Z,22.10
2022-12-01T18:44:52.115Z,22.02
2022-12-01T18:46:53.661Z,22.23
2022-12-01T18:49:00.450Z,22.49
2022-12-01T18:51:01.860Z,22.59
2022-12-01T18:53:03.187Z,22.73
2022-12-01T18:55:10.316Z,22.77
2022-12-01T18:57:12.014Z,22.84
2022-12-01T18:59:13.977Z,22.80
2022-12-01T19:01:15.319Z,22.65
2022-12-01T19:03:16.830Z,22.63
2022-12-01T19:05:21.372Z,22.87
2022-12-01T19:07:26.629Z,22.88
2022-12-01T19:09:30.961Z,22.91
2022-12-01T19:11:33.179Z,22.93
2022-12-01T19:13:34.520Z,22.88
2022-12-01T19:15:35.811Z,22.99
2022-12-01T19:17:37.130Z,22.76
2022-12-01T19:19:38.436Z,22.77
2022-12-01T19:21:39.737Z,22.76
2022-12-01T19:23:41.040Z,22.62
2022-12-01T19:25:42.353Z,22.52
2022-12-01T19:29:46.209Z,22.41
2022-12-01T19:31:53.656Z,22.33
2022-12-01T19:33:57.941Z,22.30
2022-12-01T19:35:59.232Z,21.88
2022-12-01T19:38:00.533Z,22.00
2022-12-01T19:40:04.698Z,22.13
2022-12-01T19:42:06.061Z,22.05
2022-12-01T19:44:07.394Z,21.92
2022-12-01T19:46:08.710Z,21.90
2022-12-01T19:48:10.109Z,21.92
2022-12-01T19:50:11.400Z,22.00
2022-12-01T19:52:12.721Z,21.96
2022-12-01T19:54:14.060Z,21.99
2022-12-01T19:56:15.340Z,21.93
2022-12-01T19:58:16.629Z,21.93
2022-12-01T20:00:17.940Z,22.02
2022-12-01T20:02:22.958Z,21.96
2022-12-01T20:04:27.383Z,22.01
2022-12-01T20:06:34.549Z,22.17
2022-12-01T20:08:36.280Z,22.13
2022-12-01T20:10:37.657Z,22.23
2022-12-01T20:12:39.013Z,22.29
2022-12-01T20:14:40.371Z,22.31
2022-12-01T20:16:41.681Z,22.45
2022-12-01T20:18:43.065Z,22.65
2022-12-01T20:20:44.349Z,22.72
2022-12-01T20:22:45.640Z,22.91
2022-12-01T20:24:46.934Z,22.95
2022-12-01T20:26:48.261Z,22.95
2022-12-01T20:28:49.580Z,22.98
2022-12-01T20:30:50.904Z,22.93
2022-12-01T20:32:52.232Z,23.01
2022-12-01T20:34:53.660Z,22.90
2022-12-01T20:36:55.085Z,23.03
2022-12-01T20:38:56.409Z,22.55
2022-12-01T20:40:57.710Z,22.20
2022-12-01T20:42:59.043Z,22.43
2022-12-01T20:45:00.324Z,22.47
2022-12-01T20:47:01.749Z,22.57
2022-12-01T20:49:03.482Z,22.60
2022-12-01T20:51:04.760Z,22.49
2022-12-01T20:53:06.048Z,22.43
2022-12-01T20:55:07.360Z,22.40
2022-12-01T20:57:08.797Z,22.40
2022-12-01T20:59:10.105Z,22.41
2022-12-01T21:01:11.438Z,22.43
2022-12-01T21:03:12.751Z,22.42
2022-12-01T21:05:14.468Z,22.28
2022-12-01T21:07:15.756Z,22.28
2022-12-01T21:09:20.702Z,19.19
2022-12-01T21:11:44.736Z,17.29
2022-12-01T21:13:46.224Z,16.79
2022-12-01T21:15:47.552Z,18.77
2022-12-01T21:17:48.836Z,19.64
2022-12-01T21:19:53.362Z,20.11
2022-12-01T21:21:54.680Z,20.44
2022-12-01T21:23:56.000Z,20.71
2022-12-01T21:25:57.297Z,20.96
2022-12-01T21:27:58.572Z,21.20
2022-12-01T21:30:09.587Z,21.40
2022-12-01T21:32:10.861Z,21.59
2022-12-01T21:34:12.140Z,21.68
2022-12-01T21:36:13.422Z,21.76
2022-12-01T21:38:20.466Z,21.86
2022-12-01T21:40:23.577Z,21.92
2022-12-01T21:42:24.856Z,21.94
2022-12-01T21:44:26.137Z,21.94
2022-12-01T21:46:27.449Z,21.95
2022-12-01T21:48:29.521Z,21.97
2022-12-01T21:50:32.725Z,21.93
2022-12-01T21:52:34.028Z,21.97
2022-12-01T21:54:35.310Z,21.97
2022-12-01T21:56:36.588Z,21.98
2022-12-01T21:58:37.912Z,21.96
2022-12-01T22:00:39.194Z,21.94
2022-12-01T22:02:40.585Z,21.92
2022-12-01T22:04:43.316Z,21.86
2022-12-01T22:06:45.566Z,21.81
2022-12-01T22:08:46.920Z,21.76
2022-12-01T22:10:48.224Z,21.69
2022-12-01T22:12:49.509Z,21.66
2022-12-01T22:14:50.862Z,21.63
2022-12-01T22:16:52.364Z,21.60
2022-12-01T22:18:53.657Z,21.54
2022-12-01T22:20:54.945Z,21.47
2022-12-01T22:22:56.579Z,21.42
2022-12-01T22:24:57.867Z,21.37
2022-12-01T22:26:59.149Z,21.31
2022-12-01T22:29:03.225Z,21.26
2022-12-01T22:31:04.541Z,21.24
2022-12-01T22:33:06.028Z,21.20
2022-12-01T22:35:07.345Z,21.15
2022-12-01T22:37:08.629Z,21.13
2022-12-01T22:39:09.909Z,21.08
2022-12-01T22:41:13.993Z,21.04
2022-12-01T22:43:15.293Z,21.03
2022-12-01T22:45:16.628Z,21.02
2022-12-01T22:47:17.945Z,21.01
2022-12-01T22:49:20.706Z,21.01
2022-12-01T22:51:22.159Z,21.04
2022-12-01T22:53:23.557Z,21.04
2022-12-01T22:55:24.839Z,21.05
2022-12-01T22:57:26.176Z,21.06
2022-12-01T22:59:27.508Z,21.12
2022-12-01T23:01:28.888Z,21.18
2022-12-01T23:03:30.232Z,21.24
2022-12-01T23:05:31.630Z,21.33
2022-12-01T23:07:33.023Z,21.39
2022-12-01T23:09:34.351Z,21.45
2022-12-01T23:11:35.628Z,21.50
2022-12-01T23:13:36.922Z,21.54
2022-12-01T23:15:38.286Z,21.59
2022-12-01T23:17:40.666Z,21.63
2022-12-01T23:19:41.996Z,21.64
2022-12-01T23:21:43.296Z,21.65
2022-12-01T23:23:44.615Z,21.69
2022-12-01T23:25:45.945Z,21.69
2022-12-01T23:27:47.224Z,21.66
2022-12-01T23:29:48.512Z,21.66
2022-12-01T23:31:49.823Z,21.63
2022-12-01T23:33:51.137Z,21.61
2022-12-01T23:35:52.477Z,21.53
2022-12-01T23:37:54.041Z,21.54
2022-12-01T23:39:55.368Z,21.63
2022-12-01T23:41:56.645Z,21.64
2022-12-01T23:43:57.928Z,21.62
2022-12-01T23:45:59.234Z,21.55
2022-12-01T23:48:00.535Z,21.49
2022-12-01T23:50:01.853Z,21.45
2022-12-01T23:52:03.193Z,21.41
2022-12-01T23:54:04.477Z,21.36
2022-12-01T23:56:06.676Z,21.31
2022-12-01T23:58:07.966Z,21.30
